CheckWX is a tool to help pilots better visualize weather data.  It is not intended as a substitute for an official pre-flight weather briefing.

04:53:47 UTC

04V METAR
Saguache Municipal Airport
Saguache, Colorado, USA
Current

18 mins ago

K04V 180436Z AUTO 00000KT 10SM SCT055 BKN100 10/07 A3028 RMK AO2
Observed
Jun-18 @ 04:36 UTC
Visibility
10 SM
Flight Rules
VFR
Cloud Levels
  • Scattered at 5,500' AGL
  • Broken at 10,000' AGL
Temperature
10°C / 50°F
Dewpoint
C / 45°F
Humidity
82%
Altimeter
30.28" Hg
Pressure
1025.42 hPa
Previous

36 mins ago

K04V 180418Z AUTO 00000KT 10SM BKN100 08/06 A3028 RMK AO2
Observed
Jun-18 @ 04:18 UTC
Visibility
10 SM
Flight Rules
VFR
Cloud Levels
  • Broken at 10,000' AGL
Temperature
C / 46°F
Dewpoint
C / 43°F
Humidity
87%
Altimeter
30.28" Hg
Pressure
1025.42 hPa
Previous

54 mins ago

K04V 180400Z AUTO 00000KT 10SM CLR 10/06 A3026 RMK AO2
Observed
Jun-18 @ 04:00 UTC
Visibility
10 SM
Flight Rules
VFR
Cloud Levels
  • Clear skies
Temperature
10°C / 50°F
Dewpoint
C / 43°F
Humidity
76%
Altimeter
30.26" Hg
Pressure
1024.72 hPa